createdAt,value
2023-04-15T00:00:37.624Z,100050.56
2023-04-15T00:03:15.609Z,100052.05
2023-04-15T00:05:43.997Z,100050.77
2023-04-15T00:08:13.092Z,100060.94
2023-04-15T00:10:44.345Z,100071.58
2023-04-15T00:13:12.615Z,100076.07
2023-04-15T00:15:41.405Z,100085.24
2023-04-15T00:18:10.091Z,100086.43
2023-04-15T00:20:38.598Z,100087.79
2023-04-15T00:23:07.877Z,100091.89
2023-04-15T00:25:36.154Z,100095.92
2023-04-15T00:28:04.832Z,100102.25
2023-04-15T00:30:33.042Z,100109.25
2023-04-15T00:33:04.658Z,100112.86
2023-04-15T00:35:33.043Z,100110.96
2023-04-15T00:38:01.218Z,100108.59
2023-04-15T00:40:29.490Z,100106.90
2023-04-15T00:42:57.663Z,100094.27
2023-04-15T00:45:28.251Z,100089.81
2023-04-15T00:47:57.040Z,100085.05
2023-04-15T00:50:25.563Z,100082.53
2023-04-15T00:52:53.838Z,100080.83
2023-04-15T00:55:22.835Z,100084.40
2023-04-15T00:57:52.846Z,100085.43
2023-04-15T01:00:21.739Z,100100.15
2023-04-15T01:02:51.262Z,100108.59
2023-04-15T01:05:19.823Z,100102.60
2023-04-15T01:07:48.963Z,100094.45
2023-04-15T01:10:17.406Z,100093.13
2023-04-15T01:12:45.775Z,100099.14
2023-04-15T01:15:13.948Z,100096.33
2023-04-15T01:17:42.719Z,100085.45
2023-04-15T01:20:12.452Z,100085.94
2023-04-15T01:22:41.545Z,100075.74
2023-04-15T01:25:17.916Z,100090.59
2023-04-15T01:27:46.697Z,100084.55
2023-04-15T01:30:15.791Z,100090.95
2023-04-15T01:32:44.159Z,100083.34
2023-04-15T01:35:13.366Z,100083.93
2023-04-15T01:37:42.360Z,100088.20
2023-04-15T01:40:11.309Z,100106.23
2023-04-15T01:42:39.738Z,100127.61
2023-04-15T01:45:09.027Z,100133.21
2023-04-15T01:47:39.596Z,100123.19
2023-04-15T01:50:08.762Z,100118.48
2023-04-15T01:52:37.137Z,100112.77
2023-04-15T01:55:06.412Z,100101.92
2023-04-15T01:57:34.613Z,100096.02
2023-04-15T02:00:04.741Z,100091.56
2023-04-15T02:02:41.669Z,100092.62
2023-04-15T02:05:11.220Z,100088.73
2023-04-15T02:07:39.399Z,100082.41
2023-04-15T02:10:08.184Z,100081.95
2023-04-15T02:12:37.141Z,100071.26
2023-04-15T02:15:06.472Z,100056.67
2023-04-15T02:17:35.977Z,100055.37
2023-04-15T02:20:08.966Z,100066.93
2023-04-15T02:22:37.139Z,100060.67
2023-04-15T02:25:06.296Z,100057.03
2023-04-15T02:27:34.620Z,100055.52
2023-04-15T02:30:03.351Z,100069.14
2023-04-15T02:32:31.685Z,100076.41
2023-04-15T02:35:05.750Z,100077.75
2023-04-15T02:37:40.793Z,100068.16
2023-04-15T02:40:12.388Z,100060.67
2023-04-15T02:42:41.268Z,100057.42
2023-04-15T02:45:13.244Z,100062.67
2023-04-15T02:47:41.962Z,100059.70
2023-04-15T02:50:13.406Z,100058.34
2023-04-15T02:52:43.694Z,100052.63
2023-04-15T02:55:12.795Z,100048.98
2023-04-15T02:57:41.676Z,100044.29
2023-04-15T03:00:12.226Z,100042.44
2023-04-15T03:02:47.211Z,100051.91
2023-04-15T03:05:15.780Z,100060.23
2023-04-15T03:07:49.411Z,100064.52
2023-04-15T03:10:18.207Z,100081.88
2023-04-15T03:12:48.434Z,100101.58
2023-04-15T03:15:19.574Z,100111.13
2023-04-15T03:17:50.830Z,100116.95
2023-04-15T03:20:19.232Z,100121.08
2023-04-15T03:22:48.901Z,100109.40
2023-04-15T03:25:17.413Z,100092.34
2023-04-15T03:27:45.760Z,100094.02
2023-04-15T03:30:14.145Z,100092.10
2023-04-15T03:32:42.643Z,100103.21
2023-04-15T03:35:11.002Z,100124.41
2023-04-15T03:37:39.375Z,100129.30
2023-04-15T03:40:08.913Z,100119.59
2023-04-15T03:42:37.057Z,100132.87
2023-04-15T03:45:06.768Z,100132.80
2023-04-15T03:47:34.953Z,100114.99
2023-04-15T03:50:03.218Z,100110.21
2023-04-15T03:52:31.598Z,100107.05
2023-04-15T03:54:59.871Z,100109.93
2023-04-15T03:57:28.250Z,100128.60
2023-04-15T03:59:56.422Z,100148.52
2023-04-15T04:02:24.715Z,100166.09
2023-04-15T04:04:53.129Z,100172.48
2023-04-15T04:07:24.527Z,100177.88
2023-04-15T04:09:53.005Z,100181.25
2023-04-15T04:12:21.175Z,100184.35
2023-04-15T04:14:49.452Z,100184.15
2023-04-15T04:17:17.652Z,100177.31
2023-04-15T04:19:46.004Z,100187.64
2023-04-15T04:22:14.195Z,100188.63
2023-04-15T04:24:42.451Z,100177.44
2023-04-15T04:27:10.933Z,100174.25
2023-04-15T04:29:39.107Z,100181.64
2023-04-15T04:32:07.478Z,100187.20
2023-04-15T04:34:35.864Z,100181.10
2023-04-15T04:37:04.037Z,100193.12
2023-04-15T04:39:32.925Z,100202.08
2023-04-15T04:42:01.620Z,100200.19
2023-04-15T04:44:29.894Z,100195.99
2023-04-15T04:46:58.060Z,100197.04
2023-04-15T04:49:26.238Z,100199.63
2023-04-15T04:51:54.722Z,100199.39
2023-04-15T04:54:23.924Z,100203.54
2023-04-15T04:56:52.095Z,100209.90
2023-04-15T04:59:20.670Z,100200.73
2023-04-15T05:01:55.503Z,100200.63
2023-04-15T05:04:24.278Z,100199.70
2023-04-15T05:06:52.454Z,100205.83
2023-04-15T05:09:20.740Z,100211.13
2023-04-15T05:11:48.912Z,100208.71
2023-04-15T05:14:17.493Z,100202.73
2023-04-15T05:16:45.664Z,100193.26
2023-04-15T05:19:13.945Z,100191.33
2023-04-15T05:21:42.225Z,100187.61
2023-04-15T05:24:10.791Z,100190.80
2023-04-15T05:26:38.873Z,100190.17
2023-04-15T05:29:07.308Z,100187.07
2023-04-15T05:31:35.679Z,100185.35
2023-04-15T05:34:05.465Z,100191.67
2023-04-15T05:36:33.817Z,100192.30
2023-04-15T05:39:02.533Z,100186.64
2023-04-15T05:41:30.882Z,100191.34
2023-04-15T05:43:59.261Z,100196.86
2023-04-15T05:46:27.902Z,100201.73
2023-04-15T05:48:56.613Z,100208.66
2023-04-15T05:51:25.029Z,100205.27
2023-04-15T05:53:53.390Z,100209.16
2023-04-15T05:56:21.764Z,100208.70
2023-04-15T05:58:51.320Z,100212.34
2023-04-15T06:01:21.492Z,100212.84
2023-04-15T06:03:50.377Z,100214.08
2023-04-15T06:06:18.973Z,100212.93
2023-04-15T06:08:47.547Z,100213.91
2023-04-15T06:11:15.927Z,100213.66
2023-04-15T06:13:44.108Z,100214.83
2023-04-15T06:16:12.826Z,100218.23
2023-04-15T06:18:41.171Z,100217.71
2023-04-15T06:21:09.348Z,100225.67
2023-04-15T06:23:38.028Z,100222.02
2023-04-15T06:26:06.199Z,100218.21
2023-04-15T06:28:34.588Z,100213.32
2023-04-15T06:31:02.765Z,100207.71
2023-04-15T06:33:32.013Z,100210.01
2023-04-15T06:36:00.335Z,100207.23
2023-04-15T06:38:28.454Z,100202.11
2023-04-15T06:40:56.669Z,100213.89
2023-04-15T06:43:25.108Z,100224.03
2023-04-15T06:45:53.258Z,100242.27
2023-04-15T06:48:22.272Z,100244.14
2023-04-15T06:50:50.882Z,100245.52
2023-04-15T06:53:19.030Z,100243.30
2023-04-15T06:55:47.127Z,100242.48
2023-04-15T06:58:15.748Z,100243.36
2023-04-15T07:00:44.873Z,100243.90
2023-04-15T07:03:13.378Z,100247.70
2023-04-15T07:05:41.705Z,100250.98
2023-04-15T07:08:09.892Z,100245.34
2023-04-15T07:10:38.303Z,100239.69
2023-04-15T07:13:09.006Z,100239.70
2023-04-15T07:15:37.196Z,100247.01
2023-04-15T07:18:05.371Z,100250.29
2023-04-15T07:20:33.487Z,100250.73
2023-04-15T07:23:01.722Z,100256.05
2023-04-15T07:25:29.904Z,100261.14
2023-04-15T07:27:58.522Z,100267.98
2023-04-15T07:30:26.689Z,100266.66
2023-04-15T07:32:55.076Z,100268.20
2023-04-15T07:35:23.650Z,100272.13
2023-04-15T07:37:52.409Z,100281.58
2023-04-15T07:40:20.560Z,100282.27
2023-04-15T07:42:49.686Z,100291.09
2023-04-15T07:45:17.927Z,100290.52
2023-04-15T07:47:46.352Z,100289.94
2023-04-15T07:50:14.902Z,100283.95
2023-04-15T07:52:44.115Z,100287.16
2023-04-15T07:55:12.432Z,100288.30
2023-04-15T07:57:42.108Z,100289.53
2023-04-15T08:00:10.591Z,100295.05
2023-04-15T08:02:43.594Z,100294.37
2023-04-15T08:05:11.869Z,100299.73
2023-04-15T08:07:40.154Z,100297.84
2023-04-15T08:10:08.748Z,100305.43
2023-04-15T08:12:37.289Z,100304.13
2023-04-15T08:15:06.011Z,100312.51
2023-04-15T08:17:34.284Z,100315.13
2023-04-15T08:20:04.685Z,100315.43
2023-04-15T08:22:33.456Z,100319.17
2023-04-15T08:25:01.694Z,100319.33
2023-04-15T08:27:29.888Z,100324.68
2023-04-15T08:29:58.692Z,100321.11
2023-04-15T08:32:27.371Z,100314.68
2023-04-15T08:34:55.667Z,100315.44
2023-04-15T08:37:24.244Z,100313.58
2023-04-15T08:39:52.337Z,100314.38
2023-04-15T08:42:31.783Z,100316.39
2023-04-15T08:45:01.896Z,100321.45
2023-04-15T08:47:34.568Z,100322.66
2023-04-15T08:50:04.527Z,100327.16
2023-04-15T08:52:32.760Z,100323.87
2023-04-15T08:55:03.162Z,100326.39
2023-04-15T08:57:32.241Z,100322.59
2023-04-15T09:00:05.731Z,100327.05
2023-04-15T09:02:34.838Z,100321.91
2023-04-15T09:05:06.677Z,100327.59
2023-04-15T09:07:36.896Z,100327.81
2023-04-15T09:10:07.753Z,100317.02
2023-04-15T09:12:37.072Z,100307.66
2023-04-15T09:15:06.097Z,100311.66
2023-04-15T09:17:34.880Z,100302.82
2023-04-15T09:20:13.158Z,100301.77
2023-04-15T09:22:43.123Z,100305.66
2023-04-15T09:25:23.372Z,100304.52
2023-04-15T09:27:53.172Z,100315.79
2023-04-15T09:30:21.560Z,100323.20
2023-04-15T09:32:58.153Z,100317.02
2023-04-15T09:35:30.339Z,100317.38
2023-04-15T09:38:10.293Z,100316.52
2023-04-15T09:40:41.244Z,100311.77
2023-04-15T09:43:13.254Z,100321.35
2023-04-15T09:45:48.445Z,100316.83
2023-04-15T09:48:22.466Z,100315.89
2023-04-15T09:50:53.681Z,100313.83
2023-04-15T09:53:23.334Z,100308.63
2023-04-15T09:55:56.668Z,100314.10
2023-04-15T09:58:29.739Z,100321.58
2023-04-15T10:00:58.610Z,100317.66
2023-04-15T10:03:29.723Z,100308.62
2023-04-15T10:05:59.672Z,100309.67
2023-04-15T10:08:33.901Z,100310.41
2023-04-15T10:11:03.497Z,100310.38
2023-04-15T10:13:37.515Z,100313.54
2023-04-15T10:16:17.110Z,100324.70
2023-04-15T10:18:48.113Z,100333.95
2023-04-15T10:21:18.985Z,100338.55
2023-04-15T10:23:47.515Z,100336.83
2023-04-15T10:26:17.421Z,100329.67
2023-04-15T10:28:49.658Z,100324.48
2023-04-15T10:31:18.732Z,100317.36
2023-04-15T10:33:48.906Z,100316.65
2023-04-15T10:36:19.234Z,100313.02
2023-04-15T10:38:47.718Z,100309.09
2023-04-15T10:41:21.443Z,100310.58
2023-04-15T10:43:53.168Z,100312.84
2023-04-15T10:46:39.561Z,100299.54
2023-04-15T10:49:15.686Z,100288.84
2023-04-15T10:51:47.211Z,100294.92
2023-04-15T10:54:16.700Z,100295.27
2023-04-15T10:56:45.890Z,100280.82
2023-04-15T10:59:17.046Z,100284.02
2023-04-15T11:02:06.181Z,100299.31
2023-04-15T11:04:57.752Z,100307.45
2023-04-15T11:07:39.825Z,100310.65
2023-04-15T11:10:14.105Z,100304.23
2023-04-15T11:12:42.308Z,100298.59
2023-04-15T11:15:35.464Z,100303.60
2023-04-15T11:18:11.583Z,100314.60
2023-04-15T11:20:48.096Z,100306.44
2023-04-15T11:23:20.037Z,100304.66
2023-04-15T11:25:48.957Z,100304.31
2023-04-15T11:28:17.060Z,100308.25
2023-04-15T11:30:45.402Z,100307.54
2023-04-15T11:33:14.197Z,100306.48
2023-04-15T11:35:42.771Z,100287.00
2023-04-15T11:38:14.036Z,100284.90
2023-04-15T11:40:46.201Z,100287.05
2023-04-15T11:43:16.415Z,100291.25
2023-04-15T11:45:58.631Z,100287.75
2023-04-15T11:48:36.600Z,100276.10
2023-04-15T11:51:07.229Z,100281.30
2023-04-15T11:53:39.817Z,100288.50
2023-04-15T11:56:10.390Z,100281.39
2023-04-15T11:58:39.469Z,100277.52
2023-04-15T12:01:08.139Z,100277.95
2023-04-15T12:03:39.605Z,100275.45
2023-04-15T12:06:21.008Z,100279.17
2023-04-15T12:08:49.341Z,100275.98
2023-04-15T12:11:17.792Z,100277.28
2023-04-15T12:13:50.693Z,100279.28
2023-04-15T12:16:20.072Z,100277.29
2023-04-15T12:18:56.373Z,100270.72
2023-04-15T12:21:26.835Z,100270.96
2023-04-15T12:23:57.323Z,100270.38
2023-04-15T12:26:30.177Z,100276.91
2023-04-15T12:29:02.002Z,100282.36
2023-04-15T12:31:30.924Z,100277.14
2023-04-15T12:34:00.881Z,100281.86
2023-04-15T12:36:32.010Z,100279.57
2023-04-15T12:39:00.292Z,100285.84
2023-04-15T12:41:28.563Z,100282.40
2023-04-15T12:43:56.925Z,100278.21
2023-04-15T12:46:26.056Z,100281.89
2023-04-15T12:48:54.314Z,100280.20
2023-04-15T12:51:22.565Z,100281.14
2023-04-15T12:53:51.189Z,100281.42
2023-04-15T12:56:20.063Z,100277.09
2023-04-15T12:58:49.171Z,100278.46
2023-04-15T13:01:17.484Z,100274.58
2023-04-15T13:03:45.908Z,100281.48
2023-04-15T13:06:14.175Z,100289.71
2023-04-15T13:08:51.159Z,100285.96
2023-04-15T13:11:26.316Z,100289.02
2023-04-15T13:13:54.483Z,100282.38
2023-04-15T13:16:23.906Z,100283.23
2023-04-15T13:18:52.037Z,100280.66
2023-04-15T13:21:20.890Z,100274.32
2023-04-15T13:23:51.178Z,100277.96
2023-04-15T13:26:19.652Z,100290.05
2023-04-15T13:28:47.948Z,100288.51
2023-04-15T13:31:16.297Z,100289.56
2023-04-15T13:33:44.563Z,100291.46
2023-04-15T13:36:12.726Z,100288.24
2023-04-15T13:38:40.995Z,100289.99
2023-04-15T13:41:09.107Z,100289.23
2023-04-15T13:43:37.774Z,100283.85
2023-04-15T13:46:06.000Z,100282.65
2023-04-15T13:48:34.173Z,100275.92
2023-04-15T13:51:02.304Z,100271.03
2023-04-15T13:53:37.988Z,100281.50
2023-04-15T13:56:08.562Z,100284.12
2023-04-15T13:58:38.140Z,100291.00
2023-04-15T14:01:07.422Z,100297.41
2023-04-15T14:03:36.923Z,100302.29
2023-04-15T14:06:06.615Z,100305.09
2023-04-15T14:08:34.961Z,100302.93
2023-04-15T14:11:03.231Z,100301.16
2023-04-15T14:13:31.493Z,100305.86
2023-04-15T14:16:00.013Z,100299.11
2023-04-15T14:18:28.422Z,100294.60
2023-04-15T14:20:57.190Z,100299.95
2023-04-15T14:23:25.364Z,100309.52
2023-04-15T14:25:53.671Z,100313.10
2023-04-15T14:28:21.764Z,100312.59
2023-04-15T14:30:50.070Z,100319.77
2023-04-15T14:33:18.220Z,100315.83
2023-04-15T14:35:46.627Z,100318.98
2023-04-15T14:38:14.712Z,100323.44
2023-04-15T14:40:43.041Z,100317.13
2023-04-15T14:43:11.189Z,100315.03
2023-04-15T14:45:42.060Z,100307.08
2023-04-15T14:48:12.883Z,100307.56
2023-04-15T14:50:41.233Z,100310.96
2023-04-15T14:53:09.706Z,100311.39
2023-04-15T14:55:37.866Z,100317.95
2023-04-15T14:58:08.381Z,100317.34
2023-04-15T15:00:42.001Z,100314.54
2023-04-15T15:03:14.883Z,100316.15
2023-04-15T15:05:47.396Z,100316.50
2023-04-15T15:08:15.726Z,100330.66
2023-04-15T15:10:48.485Z,100333.27
2023-04-15T15:13:19.278Z,100335.30
2023-04-15T15:15:49.815Z,100343.48
2023-04-15T15:18:21.544Z,100347.02
2023-04-15T15:20:50.101Z,100353.80
2023-04-15T15:23:18.980Z,100356.23
2023-04-15T15:25:47.802Z,100353.36
2023-04-15T15:28:16.264Z,100357.95
2023-04-15T15:30:44.346Z,100350.89
2023-04-15T15:33:12.574Z,100350.86
2023-04-15T15:35:41.242Z,100347.20
2023-04-15T15:38:12.012Z,100350.73
2023-04-15T15:40:40.135Z,100348.05
2023-04-15T15:43:08.587Z,100344.58
2023-04-15T15:45:36.755Z,100345.16
2023-04-15T15:48:05.563Z,100348.40
2023-04-15T15:50:34.645Z,100348.42
2023-04-15T15:53:03.016Z,100346.59
2023-04-15T15:55:31.489Z,100353.31
2023-04-15T15:57:59.639Z,100351.00
2023-04-15T16:00:27.734Z,100353.92
2023-04-15T16:05:28.618Z,100353.21
2023-04-15T16:07:56.835Z,100352.84
2023-04-15T16:10:24.929Z,100353.75
2023-04-15T16:12:53.222Z,100351.92
2023-04-15T16:15:23.129Z,100352.59
2023-04-15T16:17:51.553Z,100352.52
2023-04-15T16:20:19.902Z,100347.27
2023-04-15T16:22:48.300Z,100349.40
2023-04-15T16:25:16.407Z,100355.20
2023-04-15T16:27:58.740Z,100356.69
2023-04-15T16:30:29.491Z,100361.70
2023-04-15T16:32:57.924Z,100362.81
2023-04-15T16:35:26.226Z,100363.95
2023-04-15T16:37:54.399Z,100369.02
2023-04-15T16:40:22.498Z,100371.34
2023-04-15T16:42:51.350Z,100376.35
2023-04-15T16:45:19.528Z,100379.17
2023-04-15T16:47:47.758Z,100381.83
2023-04-15T16:50:16.508Z,100382.39
2023-04-15T16:52:44.778Z,100387.55
2023-04-15T16:55:13.063Z,100385.52
2023-04-15T16:58:02.184Z,100390.09
2023-04-15T17:00:29.796Z,100391.77
2023-04-15T17:02:58.628Z,100392.88
2023-04-15T17:05:27.790Z,100395.24
2023-04-15T17:07:56.050Z,100401.23
2023-04-15T17:10:24.224Z,100408.67
2023-04-15T17:12:53.563Z,100413.27
2023-04-15T17:15:21.789Z,100417.20
2023-04-15T17:17:51.156Z,100422.91
2023-04-15T17:20:19.446Z,100435.73
2023-04-15T17:22:49.108Z,100444.81
2023-04-15T17:25:17.858Z,100449.33
2023-04-15T17:27:45.959Z,100454.44
2023-04-15T17:30:14.089Z,100463.30
2023-04-15T17:32:42.363Z,100466.95
2023-04-15T17:35:10.605Z,100467.30
2023-04-15T17:37:38.888Z,100468.45
2023-04-15T17:40:08.748Z,100474.94
2023-04-15T17:42:37.154Z,100478.68
2023-04-15T17:45:05.852Z,100488.09
2023-04-15T17:47:34.105Z,100499.09
2023-04-15T17:50:02.333Z,100501.56
2023-04-15T17:52:30.623Z,100506.41
2023-04-15T17:54:58.806Z,100513.53
2023-04-15T17:57:27.028Z,100522.95
2023-04-15T17:59:55.196Z,100527.02
2023-04-15T18:02:23.719Z,100531.45
2023-04-15T18:04:52.429Z,100533.30
2023-04-15T18:07:21.006Z,100539.54
2023-04-15T18:09:50.810Z,100540.05
2023-04-15T18:12:19.202Z,100547.10
2023-04-15T18:14:47.371Z,100546.00
2023-04-15T18:17:15.951Z,100546.16
2023-04-15T18:19:44.167Z,100548.64
2023-04-15T18:22:12.714Z,100551.58
2023-04-15T18:24:40.885Z,100558.52
2023-04-15T18:27:09.162Z,100566.80
2023-04-15T18:29:37.627Z,100561.77
2023-04-15T18:32:06.296Z,100565.83
2023-04-15T18:34:34.651Z,100567.52
2023-04-15T18:37:03.455Z,100564.21
2023-04-15T18:39:31.739Z,100561.19
2023-04-15T18:42:00.065Z,100565.25
2023-04-15T18:44:28.748Z,100570.38
2023-04-15T18:46:57.111Z,100565.78
2023-04-15T18:49:27.341Z,100563.39
2023-04-15T18:51:55.831Z,100565.17
2023-04-15T18:54:24.092Z,100567.16
2023-04-15T18:56:52.241Z,100567.73
2023-04-15T18:59:30.122Z,100564.30
2023-04-15T19:02:00.418Z,100565.12
2023-04-15T19:04:31.651Z,100569.35
2023-04-15T19:07:00.023Z,100572.66
2023-04-15T19:09:29.086Z,100575.27
2023-04-15T19:11:57.794Z,100582.88
2023-04-15T19:14:26.268Z,100582.02
2023-04-15T19:16:54.950Z,100585.05
2023-04-15T19:19:23.089Z,100583.56
2023-04-15T19:21:53.312Z,100590.83
2023-04-15T19:24:21.536Z,100592.08
2023-04-15T19:26:51.298Z,100594.60
2023-04-15T19:29:19.620Z,100593.98
2023-04-15T19:31:47.887Z,100595.81
2023-04-15T19:34:16.821Z,100602.38
2023-04-15T19:36:45.055Z,100603.73
2023-04-15T19:39:13.741Z,100608.64
2023-04-15T19:41:41.934Z,100613.15
2023-04-15T19:44:12.969Z,100618.77
2023-04-15T19:46:43.750Z,100626.05
2023-04-15T19:49:12.165Z,100627.61
2023-04-15T19:51:41.893Z,100626.13
2023-04-15T19:54:10.162Z,100630.23
2023-04-15T19:56:38.326Z,100629.30
2023-04-15T19:59:06.692Z,100631.30
2023-04-15T20:01:35.491Z,100632.39
2023-04-15T20:04:04.271Z,100635.42
2023-04-15T20:06:32.829Z,100640.25
2023-04-15T20:09:01.422Z,100642.33
2023-04-15T20:12:46.965Z,100643.70
2023-04-15T20:14:18.118Z,100648.31
2023-04-15T20:16:46.245Z,100647.48
2023-04-15T20:19:14.825Z,100649.63
2023-04-15T20:21:43.209Z,100650.56
2023-04-15T20:24:11.579Z,100653.33
2023-04-15T20:26:39.872Z,100657.69
2023-04-15T20:29:08.369Z,100660.16
2023-04-15T20:31:39.939Z,100659.92
2023-04-15T20:34:10.027Z,100666.81
2023-04-15T20:36:40.107Z,100668.92
2023-04-15T20:39:08.383Z,100674.70
2023-04-15T20:41:36.679Z,100671.63
2023-04-15T20:44:04.853Z,100677.14
2023-04-15T20:46:33.048Z,100680.50
2023-04-15T20:49:01.210Z,100684.25
2023-04-15T20:51:33.375Z,100688.73
2023-04-15T20:54:01.538Z,100689.92
2023-04-15T20:56:29.719Z,100690.50
2023-04-15T20:58:58.299Z,100693.42
2023-04-15T21:01:26.597Z,100689.41
2023-04-15T21:03:55.107Z,100691.95
2023-04-15T21:06:23.436Z,100688.20
2023-04-15T21:08:52.640Z,100694.40
2023-04-15T21:11:40.585Z,100694.23
2023-04-15T21:14:09.334Z,100698.08
2023-04-15T21:16:37.447Z,100696.40
2023-04-15T21:19:05.959Z,100695.88
2023-04-15T21:21:34.363Z,100696.54
2023-04-15T21:24:02.565Z,100698.72
2023-04-15T21:26:30.858Z,100700.40
2023-04-15T21:28:58.968Z,100700.02
2023-04-15T21:31:27.237Z,100702.04
2023-04-15T21:33:55.562Z,100709.02
2023-04-15T21:36:23.739Z,100706.48
2023-04-15T21:38:51.916Z,100710.55
2023-04-15T21:41:20.085Z,100712.66
2023-04-15T21:43:48.362Z,100711.85
2023-04-15T21:46:23.292Z,100717.11
2023-04-15T21:48:53.726Z,100717.75
2023-04-15T21:51:22.094Z,100719.71
2023-04-15T21:53:50.482Z,100724.33
2023-04-15T21:56:20.798Z,100722.94
2023-04-15T21:58:48.975Z,100732.65
2023-04-15T22:01:17.694Z,100732.37
2023-04-15T22:03:46.304Z,100740.92
2023-04-15T22:06:14.722Z,100739.52
2023-04-15T22:08:54.814Z,100744.29
2023-04-15T22:11:30.574Z,100743.67
2023-04-15T22:13:59.517Z,100746.86
2023-04-15T22:16:28.443Z,100747.18
2023-04-15T22:18:56.790Z,100749.36
2023-04-15T22:21:25.172Z,100746.73
2023-04-15T22:24:32.074Z,100750.09
2023-04-15T22:26:41.848Z,100750.45
2023-04-15T22:29:10.785Z,100750.23
2023-04-15T22:31:39.123Z,100752.36
2023-04-15T22:34:07.322Z,100747.40
2023-04-15T22:36:35.604Z,100748.30
2023-04-15T22:39:04.103Z,100744.77
2023-04-15T22:41:32.665Z,100740.48
2023-04-15T22:44:00.870Z,100742.68
2023-04-15T22:46:29.254Z,100744.36
2023-04-15T22:48:57.501Z,100747.77
2023-04-15T22:51:29.295Z,100756.88
2023-04-15T22:53:57.558Z,100763.05
2023-04-15T22:56:25.912Z,100767.30
2023-04-15T22:58:54.393Z,100760.45
2023-04-15T23:01:22.692Z,100767.90
2023-04-15T23:03:57.390Z,100774.98
2023-04-15T23:06:32.643Z,100769.93
2023-04-15T23:09:01.112Z,100764.27
2023-04-15T23:11:29.391Z,100767.07
2023-04-15T23:13:57.788Z,100775.42
2023-04-15T23:16:27.535Z,100776.29
2023-04-15T23:18:55.763Z,100777.42
2023-04-15T23:21:25.887Z,100779.19
2023-04-15T23:23:54.867Z,100782.07
2023-04-15T23:26:23.037Z,100785.45
2023-04-15T23:28:51.208Z,100782.88
2023-04-15T23:31:19.417Z,100784.11
2023-04-15T23:33:47.786Z,100784.42
2023-04-15T23:36:16.358Z,100782.20
2023-04-15T23:38:44.618Z,100790.70
2023-04-15T23:41:12.905Z,100791.66
2023-04-15T23:43:41.069Z,100794.56
2023-04-15T23:46:09.403Z,100799.33
2023-04-15T23:48:38.436Z,100795.36
2023-04-15T23:51:06.835Z,100796.39
2023-04-15T23:53:35.094Z,100801.78
2023-04-15T23:56:03.576Z,100808.86
2023-04-15T23:58:33.996Z,100808.83
